sensor_id;sensor_type;location;lat;lon;timestamp;temperature;humidity
61412;DHT22;47278;49.732;7.690;2022-07-23T00:01:39;19.20;99.90
61412;DHT22;47278;49.732;7.690;2022-07-23T00:04:06;19.30;99.90
61412;DHT22;47278;49.732;7.690;2022-07-23T00:06:32;19.30;99.90
61412;DHT22;47278;49.732;7.690;2022-07-23T00:08:58;19.30;99.90
61412;DHT22;47278;49.732;7.690;2022-07-23T00:11:24;19.30;99.90
61412;DHT22;47278;49.732;7.690;2022-07-23T00:13:50;19.30;99.90
61412;DHT22;47278;49.732;7.690;2022-07-23T00:16:16;19.20;99.90
61412;DHT22;47278;49.732;7.690;2022-07-23T00:18:42;19.20;99.90
61412;DHT22;47278;49.732;7.690;2022-07-23T00:21:07;19.30;99.90
61412;DHT22;47278;49.732;7.690;2022-07-23T00:23:33;19.30;99.90
61412;DHT22;47278;49.732;7.690;2022-07-23T00:25:59;19.20;99.90
61412;DHT22;47278;49.732;7.690;2022-07-23T00:28:25;19.30;99.90
61412;DHT22;47278;49.732;7.690;2022-07-23T00:30:51;19.20;99.90
61412;DHT22;47278;49.732;7.690;2022-07-23T00:33:16;19.20;99.90
61412;DHT22;47278;49.732;7.690;2022-07-23T00:35:42;19.20;99.90
61412;DHT22;47278;49.732;7.690;2022-07-23T00:38:08;19.20;99.90
61412;DHT22;47278;49.732;7.690;2022-07-23T00:40:37;19.10;99.90
61412;DHT22;47278;49.732;7.690;2022-07-23T00:43:04;19.00;99.90
61412;DHT22;47278;49.732;7.690;2022-07-23T00:45:30;18.90;99.90
61412;DHT22;47278;49.732;7.690;2022-07-23T00:47:56;18.90;99.90
61412;DHT22;47278;49.732;7.690;2022-07-23T00:50:22;18.80;99.90
61412;DHT22;47278;49.732;7.690;2022-07-23T00:52:48;18.80;99.90
61412;DHT22;47278;49.732;7.690;2022-07-23T00:55:14;18.80;99.90
61412;DHT22;47278;49.732;7.690;2022-07-23T00:57:40;18.90;99.90
61412;DHT22;47278;49.732;7.690;2022-07-23T01:00:07;18.70;99.90
61412;DHT22;47278;49.732;7.690;2022-07-23T01:02:33;18.60;99.90
61412;DHT22;47278;49.732;7.690;2022-07-23T01:04:59;18.60;99.90
61412;DHT22;47278;49.732;7.690;2022-07-23T01:07:25;18.60;99.90
61412;DHT22;47278;49.732;7.690;2022-07-23T01:12:54;18.60;99.90
61412;DHT22;47278;49.732;7.690;2022-07-23T01:15:20;18.60;99.90
61412;DHT22;47278;49.732;7.690;2022-07-23T01:17:46;18.50;99.90
61412;DHT22;47278;49.732;7.690;2022-07-23T01:20:14;18.40;99.90
61412;DHT22;47278;49.732;7.690;2022-07-23T01:22:39;18.40;99.90
61412;DHT22;47278;49.732;7.690;2022-07-23T01:28:10;18.40;99.90
61412;DHT22;47278;49.732;7.690;2022-07-23T01:30:39;18.40;99.90
61412;DHT22;47278;49.732;7.690;2022-07-23T01:36:12;18.70;99.90
61412;DHT22;47278;49.732;7.690;2022-07-23T01:41:41;18.60;99.90
61412;DHT22;47278;49.732;7.690;2022-07-23T01:44:07;18.60;99.90
61412;DHT22;47278;49.732;7.690;2022-07-23T01:46:32;18.60;99.90
61412;DHT22;47278;49.732;7.690;2022-07-23T01:48:58;18.60;99.90
61412;DHT22;47278;49.732;7.690;2022-07-23T01:51:24;18.60;99.90
61412;DHT22;47278;49.732;7.690;2022-07-23T01:53:50;18.50;99.90
61412;DHT22;47278;49.732;7.690;2022-07-23T01:56:16;18.40;99.90
61412;DHT22;47278;49.732;7.690;2022-07-23T01:58:41;18.40;99.90
61412;DHT22;47278;49.732;7.690;2022-07-23T02:01:07;18.40;99.90
61412;DHT22;47278;49.732;7.690;2022-07-23T02:03:33;18.40;99.90
61412;DHT22;47278;49.732;7.690;2022-07-23T02:05:59;18.40;99.90
61412;DHT22;47278;49.732;7.690;2022-07-23T02:08:24;18.50;99.90
61412;DHT22;47278;49.732;7.690;2022-07-23T02:10:50;18.50;99.90
61412;DHT22;47278;49.732;7.690;2022-07-23T02:13:17;18.40;99.90
61412;DHT22;47278;49.732;7.690;2022-07-23T02:15:42;18.40;99.90
61412;DHT22;47278;49.732;7.690;2022-07-23T02:18:08;18.40;99.90
61412;DHT22;47278;49.732;7.690;2022-07-23T02:20:34;18.40;99.90
61412;DHT22;47278;49.732;7.690;2022-07-23T02:26:03;18.40;99.90
61412;DHT22;47278;49.732;7.690;2022-07-23T02:31:32;18.30;99.90
61412;DHT22;47278;49.732;7.690;2022-07-23T02:37:02;18.30;99.90
61412;DHT22;47278;49.732;7.690;2022-07-23T02:39:27;18.20;99.90
61412;DHT22;47278;49.732;7.690;2022-07-23T02:45:09;18.20;99.90
61412;DHT22;47278;49.732;7.690;2022-07-23T02:50:40;18.20;99.90
61412;DHT22;47278;49.732;7.690;2022-07-23T02:53:05;18.20;99.90
61412;DHT22;47278;49.732;7.690;2022-07-23T02:55:31;18.30;99.90
61412;DHT22;47278;49.732;7.690;2022-07-23T02:57:57;18.50;99.90
61412;DHT22;47278;49.732;7.690;2022-07-23T03:00:23;18.60;99.90
61412;DHT22;47278;49.732;7.690;2022-07-23T03:02:49;18.50;99.90
61412;DHT22;47278;49.732;7.690;2022-07-23T03:05:15;18.40;99.90
61412;DHT22;47278;49.732;7.690;2022-07-23T03:07:40;18.20;99.90
61412;DHT22;47278;49.732;7.690;2022-07-23T03:10:06;18.30;99.90
61412;DHT22;47278;49.732;7.690;2022-07-23T03:12:32;18.20;99.90
61412;DHT22;47278;49.732;7.690;2022-07-23T03:14:58;18.20;99.90
61412;DHT22;47278;49.732;7.690;2022-07-23T03:17:24;18.20;99.90
61412;DHT22;47278;49.732;7.690;2022-07-23T03:19:49;18.20;99.90
61412;DHT22;47278;49.732;7.690;2022-07-23T03:22:15;18.10;99.90
61412;DHT22;47278;49.732;7.690;2022-07-23T03:24:41;18.10;99.90
61412;DHT22;47278;49.732;7.690;2022-07-23T03:27:23;18.10;99.90
61412;DHT22;47278;49.732;7.690;2022-07-23T03:29:52;18.00;99.90
61412;DHT22;47278;49.732;7.690;2022-07-23T03:32:21;18.00;99.90
61412;DHT22;47278;49.732;7.690;2022-07-23T03:34:47;17.90;99.90
61412;DHT22;47278;49.732;7.690;2022-07-23T03:37:13;18.00;99.90
61412;DHT22;47278;49.732;7.690;2022-07-23T03:39:39;17.90;99.90
61412;DHT22;47278;49.732;7.690;2022-07-23T03:42:05;17.90;99.90
61412;DHT22;47278;49.732;7.690;2022-07-23T03:44:31;17.90;99.90
61412;DHT22;47278;49.732;7.690;2022-07-23T03:46:57;17.80;99.90
61412;DHT22;47278;49.732;7.690;2022-07-23T03:49:23;17.80;99.90
61412;DHT22;47278;49.732;7.690;2022-07-23T03:51:49;17.80;99.90
61412;DHT22;47278;49.732;7.690;2022-07-23T03:54:15;17.80;99.90
61412;DHT22;47278;49.732;7.690;2022-07-23T03:56:40;17.80;99.90
61412;DHT22;47278;49.732;7.690;2022-07-23T03:59:08;17.90;99.90
61412;DHT22;47278;49.732;7.690;2022-07-23T04:01:34;17.80;99.90
61412;DHT22;47278;49.732;7.690;2022-07-23T04:04:00;17.80;99.90
61412;DHT22;47278;49.732;7.690;2022-07-23T04:06:26;17.80;99.90
61412;DHT22;47278;49.732;7.690;2022-07-23T04:08:52;17.80;99.90
61412;DHT22;47278;49.732;7.690;2022-07-23T04:11:18;17.90;99.90
61412;DHT22;47278;49.732;7.690;2022-07-23T04:13:44;17.90;99.90
61412;DHT22;47278;49.732;7.690;2022-07-23T04:16:09;18.00;99.90
61412;DHT22;47278;49.732;7.690;2022-07-23T04:18:35;18.00;99.90
61412;DHT22;47278;49.732;7.690;2022-07-23T04:21:01;17.90;99.90
61412;DHT22;47278;49.732;7.690;2022-07-23T04:23:27;17.80;99.90
61412;DHT22;47278;49.732;7.690;2022-07-23T04:25:52;17.80;99.90
61412;DHT22;47278;49.732;7.690;2022-07-23T04:28:22;17.80;99.90
61412;DHT22;47278;49.732;7.690;2022-07-23T04:30:47;17.80;99.90
61412;DHT22;47278;49.732;7.690;2022-07-23T04:33:13;17.90;99.90
61412;DHT22;47278;49.732;7.690;2022-07-23T04:35:39;17.90;99.90
61412;DHT22;47278;49.732;7.690;2022-07-23T04:38:05;17.90;99.90
61412;DHT22;47278;49.732;7.690;2022-07-23T04:40:30;17.90;99.90
61412;DHT22;47278;49.732;7.690;2022-07-23T04:42:56;17.90;99.90
61412;DHT22;47278;49.732;7.690;2022-07-23T04:45:22;18.00;99.90
61412;DHT22;47278;49.732;7.690;2022-07-23T04:47:51;18.00;99.90
61412;DHT22;47278;49.732;7.690;2022-07-23T04:50:17;18.00;99.90
61412;DHT22;47278;49.732;7.690;2022-07-23T04:52:47;17.90;99.90
61412;DHT22;47278;49.732;7.690;2022-07-23T04:55:12;17.90;99.90
61412;DHT22;47278;49.732;7.690;2022-07-23T04:57:38;18.00;99.90
61412;DHT22;47278;49.732;7.690;2022-07-23T05:00:05;17.90;99.90
61412;DHT22;47278;49.732;7.690;2022-07-23T05:02:31;17.90;99.90
61412;DHT22;47278;49.732;7.690;2022-07-23T05:04:57;17.90;99.90
61412;DHT22;47278;49.732;7.690;2022-07-23T05:07:23;18.00;99.90
61412;DHT22;47278;49.732;7.690;2022-07-23T05:09:48;18.10;99.90
61412;DHT22;47278;49.732;7.690;2022-07-23T05:12:14;18.10;99.90
61412;DHT22;47278;49.732;7.690;2022-07-23T05:14:41;18.10;99.90
61412;DHT22;47278;49.732;7.690;2022-07-23T05:17:07;18.20;99.90
61412;DHT22;47278;49.732;7.690;2022-07-23T05:19:33;18.20;99.90
61412;DHT22;47278;49.732;7.690;2022-07-23T05:21:59;18.30;99.90
61412;DHT22;47278;49.732;7.690;2022-07-23T05:24:25;18.30;99.90
61412;DHT22;47278;49.732;7.690;2022-07-23T05:26:51;18.30;99.90
61412;DHT22;47278;49.732;7.690;2022-07-23T05:29:17;18.30;99.90
61412;DHT22;47278;49.732;7.690;2022-07-23T05:31:42;18.40;99.90
61412;DHT22;47278;49.732;7.690;2022-07-23T05:34:08;18.60;99.90
61412;DHT22;47278;49.732;7.690;2022-07-23T05:36:34;18.60;99.90
61412;DHT22;47278;49.732;7.690;2022-07-23T05:38:59;18.70;99.90
61412;DHT22;47278;49.732;7.690;2022-07-23T05:41:25;18.70;99.90
61412;DHT22;47278;49.732;7.690;2022-07-23T05:43:51;18.70;99.90
61412;DHT22;47278;49.732;7.690;2022-07-23T05:46:17;18.70;99.90
61412;DHT22;47278;49.732;7.690;2022-07-23T05:48:42;18.80;99.90
61412;DHT22;47278;49.732;7.690;2022-07-23T05:51:08;18.80;99.90
61412;DHT22;47278;49.732;7.690;2022-07-23T05:53:34;18.70;99.90
61412;DHT22;47278;49.732;7.690;2022-07-23T05:56:00;18.70;99.90
61412;DHT22;47278;49.732;7.690;2022-07-23T05:58:26;18.70;99.90
61412;DHT22;47278;49.732;7.690;2022-07-23T06:00:52;18.70;99.90
61412;DHT22;47278;49.732;7.690;2022-07-23T06:03:18;18.70;99.90
61412;DHT22;47278;49.732;7.690;2022-07-23T06:05:43;18.70;99.90
61412;DHT22;47278;49.732;7.690;2022-07-23T06:08:09;18.80;99.90
61412;DHT22;47278;49.732;7.690;2022-07-23T06:13:38;19.00;99.90
61412;DHT22;47278;49.732;7.690;2022-07-23T06:19:07;19.20;99.90
61412;DHT22;47278;49.732;7.690;2022-07-23T06:21:33;19.20;99.90
61412;DHT22;47278;49.732;7.690;2022-07-23T06:23:59;19.30;99.90
61412;DHT22;47278;49.732;7.690;2022-07-23T06:26:24;19.50;99.90
61412;DHT22;47278;49.732;7.690;2022-07-23T06:28:50;19.60;99.90
61412;DHT22;47278;49.732;7.690;2022-07-23T06:31:16;19.70;99.90
61412;DHT22;47278;49.732;7.690;2022-07-23T06:33:41;19.60;99.90
61412;DHT22;47278;49.732;7.690;2022-07-23T06:36:07;19.50;99.90
61412;DHT22;47278;49.732;7.690;2022-07-23T06:38:33;19.50;99.90
61412;DHT22;47278;49.732;7.690;2022-07-23T06:40:59;19.50;99.90
61412;DHT22;47278;49.732;7.690;2022-07-23T06:43:24;19.60;99.90
61412;DHT22;47278;49.732;7.690;2022-07-23T06:45:50;19.70;99.90
61412;DHT22;47278;49.732;7.690;2022-07-23T06:48:16;19.80;99.90
61412;DHT22;47278;49.732;7.690;2022-07-23T06:50:42;19.90;99.90
61412;DHT22;47278;49.732;7.690;2022-07-23T06:53:07;19.90;99.90
61412;DHT22;47278;49.732;7.690;2022-07-23T06:55:33;20.00;99.90
61412;DHT22;47278;49.732;7.690;2022-07-23T06:58:04;20.00;99.90
61412;DHT22;47278;49.732;7.690;2022-07-23T07:00:29;19.90;99.90
61412;DHT22;47278;49.732;7.690;2022-07-23T07:02:56;19.80;99.90
61412;DHT22;47278;49.732;7.690;2022-07-23T07:05:22;19.90;99.90
61412;DHT22;47278;49.732;7.690;2022-07-23T07:07:48;19.90;99.90
61412;DHT22;47278;49.732;7.690;2022-07-23T07:10:14;20.00;99.90
61412;DHT22;47278;49.732;7.690;2022-07-23T07:12:41;20.10;99.90
61412;DHT22;47278;49.732;7.690;2022-07-23T07:15:07;20.20;99.90
61412;DHT22;47278;49.732;7.690;2022-07-23T07:17:33;20.20;99.90
61412;DHT22;47278;49.732;7.690;2022-07-23T07:19:59;20.40;99.90
61412;DHT22;47278;49.732;7.690;2022-07-23T07:22:25;20.40;99.90
61412;DHT22;47278;49.732;7.690;2022-07-23T07:24:50;20.50;99.90
61412;DHT22;47278;49.732;7.690;2022-07-23T07:27:16;20.50;99.90
61412;DHT22;47278;49.732;7.690;2022-07-23T07:29:42;20.50;99.90
61412;DHT22;47278;49.732;7.690;2022-07-23T07:32:08;20.70;99.90
61412;DHT22;47278;49.732;7.690;2022-07-23T07:34:34;20.60;99.90
61412;DHT22;47278;49.732;7.690;2022-07-23T07:36:59;20.70;99.90
61412;DHT22;47278;49.732;7.690;2022-07-23T07:39:25;20.90;99.90
61412;DHT22;47278;49.732;7.690;2022-07-23T07:41:51;21.00;99.90
61412;DHT22;47278;49.732;7.690;2022-07-23T07:44:17;21.10;99.90
61412;DHT22;47278;49.732;7.690;2022-07-23T07:49:46;21.20;99.90
61412;DHT22;47278;49.732;7.690;2022-07-23T07:55:15;21.30;99.90
61412;DHT22;47278;49.732;7.690;2022-07-23T07:57:41;21.50;99.90
61412;DHT22;47278;49.732;7.690;2022-07-23T08:00:07;21.50;99.90
61412;DHT22;47278;49.732;7.690;2022-07-23T08:02:43;21.60;99.90
61412;DHT22;47278;49.732;7.690;2022-07-23T08:05:09;21.60;99.90
61412;DHT22;47278;49.732;7.690;2022-07-23T08:07:35;21.70;99.90
61412;DHT22;47278;49.732;7.690;2022-07-23T08:10:02;21.70;99.90
61412;DHT22;47278;49.732;7.690;2022-07-23T08:12:37;21.90;99.90
61412;DHT22;47278;49.732;7.690;2022-07-23T08:15:02;22.00;99.90
61412;DHT22;47278;49.732;7.690;2022-07-23T08:17:28;22.10;99.90
61412;DHT22;47278;49.732;7.690;2022-07-23T08:19:54;22.30;99.90
61412;DHT22;47278;49.732;7.690;2022-07-23T08:22:20;22.30;99.90
61412;DHT22;47278;49.732;7.690;2022-07-23T08:24:46;22.50;99.90
61412;DHT22;47278;49.732;7.690;2022-07-23T08:27:12;22.50;99.90
61412;DHT22;47278;49.732;7.690;2022-07-23T08:29:37;22.50;99.90
61412;DHT22;47278;49.732;7.690;2022-07-23T08:32:03;22.60;99.90
61412;DHT22;47278;49.732;7.690;2022-07-23T08:34:30;22.70;99.90
61412;DHT22;47278;49.732;7.690;2022-07-23T08:36:56;22.90;99.90
61412;DHT22;47278;49.732;7.690;2022-07-23T08:39:22;23.00;99.90
61412;DHT22;47278;49.732;7.690;2022-07-23T08:41:48;23.20;99.90
61412;DHT22;47278;49.732;7.690;2022-07-23T08:44:15;23.20;99.90
61412;DHT22;47278;49.732;7.690;2022-07-23T08:46:41;23.20;99.90
61412;DHT22;47278;49.732;7.690;2022-07-23T08:49:07;23.40;99.90
61412;DHT22;47278;49.732;7.690;2022-07-23T08:51:33;23.30;99.90
61412;DHT22;47278;49.732;7.690;2022-07-23T08:53:59;23.50;99.90
61412;DHT22;47278;49.732;7.690;2022-07-23T08:56:26;23.80;99.90
61412;DHT22;47278;49.732;7.690;2022-07-23T08:58:53;24.00;99.90
61412;DHT22;47278;49.732;7.690;2022-07-23T09:01:18;24.30;99.90
61412;DHT22;47278;49.732;7.690;2022-07-23T09:03:44;24.40;99.90
61412;DHT22;47278;49.732;7.690;2022-07-23T09:06:10;24.70;99.90
61412;DHT22;47278;49.732;7.690;2022-07-23T09:08:42;24.90;99.90
61412;DHT22;47278;49.732;7.690;2022-07-23T09:11:09;24.90;99.90
61412;DHT22;47278;49.732;7.690;2022-07-23T09:13:36;24.70;99.90
61412;DHT22;47278;49.732;7.690;2022-07-23T09:16:10;24.90;99.90
61412;DHT22;47278;49.732;7.690;2022-07-23T09:18:42;25.10;99.90
61412;DHT22;47278;49.732;7.690;2022-07-23T09:23:42;25.50;99.90
61412;DHT22;47278;49.732;7.690;2022-07-23T09:29:08;25.20;99.90
61412;DHT22;47278;49.732;7.690;2022-07-23T09:31:41;24.90;99.90
61412;DHT22;47278;49.732;7.690;2022-07-23T09:34:08;24.90;99.90
61412;DHT22;47278;49.732;7.690;2022-07-23T09:36:34;24.90;99.90
61412;DHT22;47278;49.732;7.690;2022-07-23T09:39:00;25.10;99.90
61412;DHT22;47278;49.732;7.690;2022-07-23T09:41:26;25.40;99.90
61412;DHT22;47278;49.732;7.690;2022-07-23T09:43:59;25.40;99.90
61412;DHT22;47278;49.732;7.690;2022-07-23T09:46:31;25.10;99.90
61412;DHT22;47278;49.732;7.690;2022-07-23T09:48:57;25.20;99.90
61412;DHT22;47278;49.732;7.690;2022-07-23T09:51:23;25.30;99.90
61412;DHT22;47278;49.732;7.690;2022-07-23T09:54:04;25.40;99.90
61412;DHT22;47278;49.732;7.690;2022-07-23T09:56:30;25.40;99.90
61412;DHT22;47278;49.732;7.690;2022-07-23T09:58:56;25.20;99.90
61412;DHT22;47278;49.732;7.690;2022-07-23T10:01:31;25.00;99.90
61412;DHT22;47278;49.732;7.690;2022-07-23T10:03:57;26.30;99.90
61412;DHT22;47278;49.732;7.690;2022-07-23T10:06:23;25.30;99.90
61412;DHT22;47278;49.732;7.690;2022-07-23T10:08:49;25.10;99.90
61412;DHT22;47278;49.732;7.690;2022-07-23T10:11:16;25.80;99.90
61412;DHT22;47278;49.732;7.690;2022-07-23T10:13:42;25.10;99.90
61412;DHT22;47278;49.732;7.690;2022-07-23T10:16:17;25.30;99.90
61412;DHT22;47278;49.732;7.690;2022-07-23T10:18:45;25.50;99.90
61412;DHT22;47278;49.732;7.690;2022-07-23T10:21:11;25.60;99.90
61412;DHT22;47278;49.732;7.690;2022-07-23T10:23:51;25.40;99.90
61412;DHT22;47278;49.732;7.690;2022-07-23T10:26:32;25.40;99.90
61412;DHT22;47278;49.732;7.690;2022-07-23T10:34:58;26.50;99.90
61412;DHT22;47278;49.732;7.690;2022-07-23T10:37:38;27.00;99.90
61412;DHT22;47278;49.732;7.690;2022-07-23T10:40:09;27.00;99.90
61412;DHT22;47278;49.732;7.690;2022-07-23T10:42:36;27.20;99.90
61412;DHT22;47278;49.732;7.690;2022-07-23T10:48:21;28.10;99.90
61412;DHT22;47278;49.732;7.690;2022-07-23T10:56:16;28.00;99.90
61412;DHT22;47278;49.732;7.690;2022-07-23T10:58:46;28.00;99.90
61412;DHT22;47278;49.732;7.690;2022-07-23T11:03:57;28.20;99.90
61412;DHT22;47278;49.732;7.690;2022-07-23T11:06:24;28.30;99.90
61412;DHT22;47278;49.732;7.690;2022-07-23T11:09:18;28.50;99.90
61412;DHT22;47278;49.732;7.690;2022-07-23T11:11:35;27.60;99.90
61412;DHT22;47278;49.732;7.690;2022-07-23T11:14:01;27.60;99.90
61412;DHT22;47278;49.732;7.690;2022-07-23T11:16:27;28.10;99.90
61412;DHT22;47278;49.732;7.690;2022-07-23T11:18:54;27.80;99.90
61412;DHT22;47278;49.732;7.690;2022-07-23T11:32:00;26.70;99.90
61412;DHT22;47278;49.732;7.690;2022-07-23T11:36:55;27.00;99.90
61412;DHT22;47278;49.732;7.690;2022-07-23T11:39:21;26.90;99.90
61412;DHT22;47278;49.732;7.690;2022-07-23T11:41:50;27.00;99.90
61412;DHT22;47278;49.732;7.690;2022-07-23T11:44:30;27.10;99.90
61412;DHT22;47278;49.732;7.690;2022-07-23T11:46:59;27.10;99.90
61412;DHT22;47278;49.732;7.690;2022-07-23T11:52:29;26.90;99.90
61412;DHT22;47278;49.732;7.690;2022-07-23T11:54:57;27.10;99.90
61412;DHT22;47278;49.732;7.690;2022-07-23T11:57:29;27.10;99.90
61412;DHT22;47278;49.732;7.690;2022-07-23T11:59:56;27.10;99.90
61412;DHT22;47278;49.732;7.690;2022-07-23T12:02:22;27.00;99.90
61412;DHT22;47278;49.732;7.690;2022-07-23T12:04:49;27.00;99.90
61412;DHT22;47278;49.732;7.690;2022-07-23T12:07:32;26.80;99.90
61412;DHT22;47278;49.732;7.690;2022-07-23T12:09:59;27.10;99.90
61412;DHT22;47278;49.732;7.690;2022-07-23T12:12:26;27.50;99.90
61412;DHT22;47278;49.732;7.690;2022-07-23T12:14:55;28.20;99.90
61412;DHT22;47278;49.732;7.690;2022-07-23T12:17:26;28.70;99.90
61412;DHT22;47278;49.732;7.690;2022-07-23T12:19:53;29.20;99.90
61412;DHT22;47278;49.732;7.690;2022-07-23T12:22:20;29.20;99.90
61412;DHT22;47278;49.732;7.690;2022-07-23T12:24:56;29.00;99.90
61412;DHT22;47278;49.732;7.690;2022-07-23T12:27:22;29.00;99.90
61412;DHT22;47278;49.732;7.690;2022-07-23T12:29:48;28.50;99.90
61412;DHT22;47278;49.732;7.690;2022-07-23T12:32:18;28.20;99.90
61412;DHT22;47278;49.732;7.690;2022-07-23T12:34:44;28.20;99.90
61412;DHT22;47278;49.732;7.690;2022-07-23T12:37:32;28.30;99.90
61412;DHT22;47278;49.732;7.690;2022-07-23T12:39:58;28.20;99.90
61412;DHT22;47278;49.732;7.690;2022-07-23T12:42:24;28.10;99.90
61412;DHT22;47278;49.732;7.690;2022-07-23T12:45:03;29.20;99.90
61412;DHT22;47278;49.732;7.690;2022-07-23T12:47:29;29.60;99.90
61412;DHT22;47278;49.732;7.690;2022-07-23T12:49:55;29.30;99.90
61412;DHT22;47278;49.732;7.690;2022-07-23T12:52:21;29.50;99.90
61412;DHT22;47278;49.732;7.690;2022-07-23T12:54:47;29.80;99.90
61412;DHT22;47278;49.732;7.690;2022-07-23T12:57:13;30.10;99.90
61412;DHT22;47278;49.732;7.690;2022-07-23T12:59:39;30.00;99.90
61412;DHT22;47278;49.732;7.690;2022-07-23T13:02:04;30.00;99.90
61412;DHT22;47278;49.732;7.690;2022-07-23T13:04:33;30.00;99.90
61412;DHT22;47278;49.732;7.690;2022-07-23T13:07:00;30.40;99.90
61412;DHT22;47278;49.732;7.690;2022-07-23T13:09:27;30.80;99.90
61412;DHT22;47278;49.732;7.690;2022-07-23T13:11:56;30.80;99.90
61412;DHT22;47278;49.732;7.690;2022-07-23T13:14:22;29.80;99.90
61412;DHT22;47278;49.732;7.690;2022-07-23T13:16:50;30.10;99.90
61412;DHT22;47278;49.732;7.690;2022-07-23T13:19:16;30.00;99.90
61412;DHT22;47278;49.732;7.690;2022-07-23T13:21:42;29.30;99.90
61412;DHT22;47278;49.732;7.690;2022-07-23T13:24:09;29.00;99.90
61412;DHT22;47278;49.732;7.690;2022-07-23T13:26:35;28.40;99.90
61412;DHT22;47278;49.732;7.690;2022-07-23T13:29:01;28.80;99.90
61412;DHT22;47278;49.732;7.690;2022-07-23T13:31:27;28.80;99.90
61412;DHT22;47278;49.732;7.690;2022-07-23T13:33:53;28.60;99.90
61412;DHT22;47278;49.732;7.690;2022-07-23T13:36:18;28.60;99.90
61412;DHT22;47278;49.732;7.690;2022-07-23T13:38:44;28.70;99.90
61412;DHT22;47278;49.732;7.690;2022-07-23T13:41:10;29.20;99.90
61412;DHT22;47278;49.732;7.690;2022-07-23T13:43:36;29.80;99.90
61412;DHT22;47278;49.732;7.690;2022-07-23T13:46:02;29.60;99.90
61412;DHT22;47278;49.732;7.690;2022-07-23T13:48:28;28.90;99.90
61412;DHT22;47278;49.732;7.690;2022-07-23T13:50:54;29.00;99.90
61412;DHT22;47278;49.732;7.690;2022-07-23T13:53:21;29.30;99.90
61412;DHT22;47278;49.732;7.690;2022-07-23T13:55:48;29.30;99.90
61412;DHT22;47278;49.732;7.690;2022-07-23T13:58:15;28.80;99.90
61412;DHT22;47278;49.732;7.690;2022-07-23T14:00:43;30.10;99.90
61412;DHT22;47278;49.732;7.690;2022-07-23T14:03:09;29.90;99.90
61412;DHT22;47278;49.732;7.690;2022-07-23T14:05:35;30.10;99.90
61412;DHT22;47278;49.732;7.690;2022-07-23T14:08:01;30.60;99.90
61412;DHT22;47278;49.732;7.690;2022-07-23T14:10:27;31.40;99.90
61412;DHT22;47278;49.732;7.690;2022-07-23T14:12:53;31.50;99.90
61412;DHT22;47278;49.732;7.690;2022-07-23T14:15:22;31.00;99.90
61412;DHT22;47278;49.732;7.690;2022-07-23T14:17:48;30.20;99.90
61412;DHT22;47278;49.732;7.690;2022-07-23T14:20:14;30.00;99.90
61412;DHT22;47278;49.732;7.690;2022-07-23T14:22:40;30.80;99.90
61412;DHT22;47278;49.732;7.690;2022-07-23T14:25:06;30.80;99.90
61412;DHT22;47278;49.732;7.690;2022-07-23T14:27:32;30.20;99.90
61412;DHT22;47278;49.732;7.690;2022-07-23T14:29:58;29.70;99.90
61412;DHT22;47278;49.732;7.690;2022-07-23T14:32:24;29.50;99.90
61412;DHT22;47278;49.732;7.690;2022-07-23T14:34:50;30.40;99.90
61412;DHT22;47278;49.732;7.690;2022-07-23T14:37:16;30.70;99.90
61412;DHT22;47278;49.732;7.690;2022-07-23T14:39:42;30.60;99.90
61412;DHT22;47278;49.732;7.690;2022-07-23T14:42:09;30.00;99.90
61412;DHT22;47278;49.732;7.690;2022-07-23T14:44:35;29.90;99.90
61412;DHT22;47278;49.732;7.690;2022-07-23T14:47:02;29.90;99.90
61412;DHT22;47278;49.732;7.690;2022-07-23T14:49:30;30.00;99.90
61412;DHT22;47278;49.732;7.690;2022-07-23T14:51:56;30.20;99.90
61412;DHT22;47278;49.732;7.690;2022-07-23T14:54:22;30.20;99.90
61412;DHT22;47278;49.732;7.690;2022-07-23T14:56:47;30.80;99.90
61412;DHT22;47278;49.732;7.690;2022-07-23T14:59:13;31.20;99.90
61412;DHT22;47278;49.732;7.690;2022-07-23T15:04:42;31.50;99.40
61412;DHT22;47278;49.732;7.690;2022-07-23T15:07:08;31.10;99.90
61412;DHT22;47278;49.732;7.690;2022-07-23T15:09:33;30.60;99.10
61412;DHT22;47278;49.732;7.690;2022-07-23T15:11:59;31.10;99.90
61412;DHT22;47278;49.732;7.690;2022-07-23T15:14:25;31.90;99.90
61412;DHT22;47278;49.732;7.690;2022-07-23T15:16:51;31.70;98.70
61412;DHT22;47278;49.732;7.690;2022-07-23T15:19:16;31.10;98.20
61412;DHT22;47278;49.732;7.690;2022-07-23T15:24:45;31.50;97.40
61412;DHT22;47278;49.732;7.690;2022-07-23T15:27:11;32.30;98.60
61412;DHT22;47278;49.732;7.690;2022-07-23T15:29:37;32.10;97.10
61412;DHT22;47278;49.732;7.690;2022-07-23T15:32:03;31.80;97.60
61412;DHT22;47278;49.732;7.690;2022-07-23T15:34:28;31.80;96.60
61412;DHT22;47278;49.732;7.690;2022-07-23T15:36:55;32.10;96.30
61412;DHT22;47278;49.732;7.690;2022-07-23T15:39:23;32.80;95.80
61412;DHT22;47278;49.732;7.690;2022-07-23T15:41:49;34.20;95.60
61412;DHT22;47278;49.732;7.690;2022-07-23T15:44:15;34.10;94.10
61412;DHT22;47278;49.732;7.690;2022-07-23T15:46:44;34.30;95.30
61412;DHT22;47278;49.732;7.690;2022-07-23T15:49:10;34.20;93.50
61412;DHT22;47278;49.732;7.690;2022-07-23T15:51:36;33.00;93.50
61412;DHT22;47278;49.732;7.690;2022-07-23T15:54:02;32.20;94.10
61412;DHT22;47278;49.732;7.690;2022-07-23T15:56:27;31.80;93.80
61412;DHT22;47278;49.732;7.690;2022-07-23T15:58:53;31.00;94.80
61412;DHT22;47278;49.732;7.690;2022-07-23T16:01:20;30.90;95.80
61412;DHT22;47278;49.732;7.690;2022-07-23T16:03:45;30.50;97.20
61412;DHT22;47278;49.732;7.690;2022-07-23T16:06:12;30.80;96.20
61412;DHT22;47278;49.732;7.690;2022-07-23T16:08:38;31.10;96.10
61412;DHT22;47278;49.732;7.690;2022-07-23T16:11:04;30.50;96.30
61412;DHT22;47278;49.732;7.690;2022-07-23T16:13:30;30.10;96.00
61412;DHT22;47278;49.732;7.690;2022-07-23T16:15:56;30.50;97.50
61412;DHT22;47278;49.732;7.690;2022-07-23T16:18:22;31.00;95.70
61412;DHT22;47278;49.732;7.690;2022-07-23T16:20:51;31.60;95.70
61412;DHT22;47278;49.732;7.690;2022-07-23T16:23:18;31.30;95.00
61412;DHT22;47278;49.732;7.690;2022-07-23T16:25:44;30.30;96.10
61412;DHT22;47278;49.732;7.690;2022-07-23T16:28:11;30.60;96.80
61412;DHT22;47278;49.732;7.690;2022-07-23T16:30:37;30.90;96.90
61412;DHT22;47278;49.732;7.690;2022-07-23T16:33:04;30.90;95.20
61412;DHT22;47278;49.732;7.690;2022-07-23T16:35:30;30.50;95.90
61412;DHT22;47278;49.732;7.690;2022-07-23T16:37:56;31.50;95.30
61412;DHT22;47278;49.732;7.690;2022-07-23T16:40:25;32.50;93.90
61412;DHT22;47278;49.732;7.690;2022-07-23T16:42:50;32.90;94.10
61412;DHT22;47278;49.732;7.690;2022-07-23T16:45:16;31.50;94.70
61412;DHT22;47278;49.732;7.690;2022-07-23T16:47:42;30.40;94.10
61412;DHT22;47278;49.732;7.690;2022-07-23T16:50:08;29.70;94.60
61412;DHT22;47278;49.732;7.690;2022-07-23T16:55:37;29.10;96.40